createdAt,value
2022-07-29T00:00:02.428Z,44.43
2022-07-29T00:01:02.411Z,44.71
2022-07-29T00:02:02.398Z,44.60
2022-07-29T00:03:02.469Z,44.51
2022-07-29T00:04:02.449Z,44.71
2022-07-29T00:05:02.370Z,44.73
2022-07-29T00:06:02.370Z,44.91
2022-07-29T00:07:02.360Z,44.91
2022-07-29T00:08:02.362Z,45.41
2022-07-29T00:09:02.365Z,44.91
2022-07-29T00:10:02.352Z,44.40
2022-07-29T00:11:02.340Z,44.83
2022-07-29T00:12:02.327Z,44.81
2022-07-29T00:13:02.329Z,44.60
2022-07-29T00:14:02.332Z,44.93
2022-07-29T00:15:02.329Z,44.93
2022-07-29T00:16:04.503Z,44.40
2022-07-29T00:17:02.294Z,45.03
2022-07-29T00:18:02.293Z,45.23
2022-07-29T00:19:02.616Z,45.41
2022-07-29T00:20:02.284Z,45.41
2022-07-29T00:21:02.287Z,45.41
2022-07-29T00:22:02.276Z,44.63
2022-07-29T00:23:02.277Z,44.83
2022-07-29T00:24:02.249Z,44.83
2022-07-29T00:25:02.247Z,45.43
2022-07-29T00:26:02.225Z,44.95
2022-07-29T00:27:02.223Z,44.75
2022-07-29T00:28:02.223Z,45.25
2022-07-29T00:29:32.562Z,44.73
2022-07-29T00:30:03.203Z,45.33
2022-07-29T00:31:02.255Z,45.25
2022-07-29T00:32:02.243Z,45.05
2022-07-29T00:33:02.172Z,44.95
2022-07-29T00:34:02.192Z,45.25
2022-07-29T00:35:02.177Z,45.73
2022-07-29T00:36:02.160Z,45.45
2022-07-29T00:37:02.150Z,45.65
2022-07-29T00:38:02.222Z,45.13
2022-07-29T00:39:02.145Z,45.13
2022-07-29T00:40:02.164Z,45.15
2022-07-29T00:41:02.122Z,46.26
2022-07-29T00:42:02.119Z,46.46
2022-07-29T00:43:02.103Z,46.06
2022-07-29T00:44:02.095Z,45.86
2022-07-29T00:45:02.093Z,45.95
2022-07-29T00:46:02.104Z,46.06
2022-07-29T00:47:02.161Z,46.06
2022-07-29T00:48:02.086Z,45.87
2022-07-29T00:49:02.122Z,46.15
2022-07-29T00:50:02.046Z,45.78
2022-07-29T00:51:02.047Z,46.98
2022-07-29T00:52:02.040Z,46.36
2022-07-29T00:53:02.041Z,46.26
2022-07-29T00:54:02.023Z,46.26
2022-07-29T00:55:08.043Z,46.86
2022-07-29T00:56:03.010Z,46.96
2022-07-29T00:57:01.997Z,46.76
2022-07-29T00:58:01.996Z,46.96
2022-07-29T00:59:02.011Z,46.76
2022-07-29T01:00:02.011Z,46.66
2022-07-29T01:01:02.022Z,46.46
2022-07-29T01:02:01.996Z,46.96
2022-07-29T01:03:01.958Z,47.39
2022-07-29T01:04:01.949Z,47.36
2022-07-29T01:05:01.959Z,46.96
2022-07-29T01:06:01.932Z,46.78
2022-07-29T01:07:01.922Z,47.69
2022-07-29T01:08:01.914Z,46.78
2022-07-29T01:09:01.921Z,47.08
2022-07-29T01:10:01.923Z,47.49
2022-07-29T01:11:01.889Z,46.98
2022-07-29T01:12:01.898Z,47.08
2022-07-29T01:13:01.887Z,47.19
2022-07-29T01:14:01.874Z,47.28
2022-07-29T01:15:01.903Z,47.89
2022-07-29T01:16:01.940Z,47.99
2022-07-29T01:17:01.852Z,47.79
2022-07-29T01:18:01.841Z,47.08
2022-07-29T01:19:01.844Z,47.41
2022-07-29T01:20:01.843Z,47.69
2022-07-29T01:21:01.819Z,47.19
2022-07-29T01:22:01.864Z,47.39
2022-07-29T01:23:01.814Z,47.99
2022-07-29T01:24:01.805Z,47.99
2022-07-29T01:25:01.798Z,47.81
2022-07-29T01:26:01.791Z,48.61
2022-07-29T01:27:01.780Z,48.82
2022-07-29T01:28:01.800Z,48.01
2022-07-29T01:29:06.116Z,47.39
2022-07-29T01:30:02.769Z,48.39
2022-07-29T01:31:01.791Z,47.99
2022-07-29T01:32:01.859Z,47.89
2022-07-29T01:33:01.757Z,48.49
2022-07-29T01:34:01.736Z,48.01
2022-07-29T01:35:01.743Z,47.81
2022-07-29T01:36:01.746Z,47.41
2022-07-29T01:37:01.706Z,48.39
2022-07-29T01:38:01.709Z,48.21
2022-07-29T01:39:01.695Z,48.21
2022-07-29T01:40:01.688Z,48.21
2022-07-29T01:41:01.694Z,47.71
2022-07-29T01:42:01.713Z,48.19
2022-07-29T01:43:01.673Z,48.21
2022-07-29T01:44:01.663Z,48.03
2022-07-29T01:45:01.650Z,48.34
2022-07-29T01:46:01.656Z,48.74
2022-07-29T01:47:01.751Z,48.84
2022-07-29T01:48:01.652Z,49.04
2022-07-29T01:49:01.711Z,49.04
2022-07-29T01:50:01.640Z,48.82
2022-07-29T01:51:01.611Z,49.24
2022-07-29T01:52:01.615Z,49.15
2022-07-29T01:53:01.606Z,49.02
2022-07-29T01:54:01.593Z,49.22
2022-07-29T01:55:01.592Z,49.35
2022-07-29T01:56:01.603Z,48.74
2022-07-29T01:57:01.570Z,49.04
2022-07-29T01:58:01.576Z,49.24
2022-07-29T01:59:01.560Z,49.24
2022-07-29T02:00:01.565Z,49.24
2022-07-29T02:01:01.569Z,49.04
2022-07-29T02:02:01.583Z,49.24
2022-07-29T02:03:01.566Z,49.24
2022-07-29T02:04:01.529Z,49.24
2022-07-29T02:05:01.560Z,48.96
2022-07-29T02:06:01.525Z,49.15
2022-07-29T02:07:01.511Z,49.04
2022-07-29T02:08:01.502Z,49.15
2022-07-29T02:09:01.514Z,49.65
2022-07-29T02:10:01.480Z,49.35
2022-07-29T02:11:01.484Z,48.54
2022-07-29T02:12:01.470Z,48.54
2022-07-29T02:13:01.455Z,49.65
2022-07-29T02:14:01.456Z,49.24
2022-07-29T02:15:01.480Z,49.04
2022-07-29T02:16:01.475Z,49.15
2022-07-29T02:17:01.432Z,49.15
2022-07-29T02:18:01.425Z,49.35
2022-07-29T02:19:01.424Z,48.74
2022-07-29T02:20:01.417Z,49.07
2022-07-29T02:21:01.424Z,49.24
2022-07-29T02:22:01.401Z,49.75
2022-07-29T02:23:01.389Z,49.07
2022-07-29T02:24:01.384Z,49.57
2022-07-29T02:25:01.377Z,50.35
2022-07-29T02:26:01.392Z,49.75
2022-07-29T02:27:01.356Z,49.35
2022-07-29T02:28:01.352Z,49.44
2022-07-29T02:29:01.378Z,49.47
2022-07-29T02:30:01.332Z,50.57
2022-07-29T02:31:01.385Z,50.17
2022-07-29T02:32:01.321Z,50.17
2022-07-29T02:33:01.345Z,49.87
2022-07-29T02:34:01.324Z,50.17
2022-07-29T02:35:01.301Z,49.97
2022-07-29T02:36:01.303Z,50.07
2022-07-29T02:37:01.289Z,49.97
2022-07-29T02:38:01.298Z,50.17
2022-07-29T02:39:01.294Z,49.57
2022-07-29T02:40:01.270Z,50.27
2022-07-29T02:41:01.254Z,51.00
2022-07-29T02:42:01.254Z,51.31
2022-07-29T02:43:01.245Z,51.10
2022-07-29T02:44:01.255Z,50.98
2022-07-29T02:45:01.231Z,51.20
2022-07-29T02:46:01.256Z,51.10
2022-07-29T02:47:01.267Z,51.20
2022-07-29T02:48:01.209Z,51.28
2022-07-29T02:49:01.303Z,51.08
2022-07-29T02:50:01.193Z,51.38
2022-07-29T02:51:01.187Z,51.28
2022-07-29T02:52:01.188Z,51.08
2022-07-29T02:53:01.173Z,50.90
2022-07-29T02:54:01.187Z,50.88
2022-07-29T02:55:01.180Z,51.00
2022-07-29T02:56:01.151Z,50.57
2022-07-29T02:57:01.148Z,50.98
2022-07-29T02:58:01.158Z,51.00
2022-07-29T02:59:01.136Z,51.00
2022-07-29T03:00:01.145Z,51.31
2022-07-29T03:01:01.117Z,51.51
2022-07-29T03:02:01.189Z,51.51
2022-07-29T03:03:01.101Z,52.11
2022-07-29T03:04:01.095Z,51.81
2022-07-29T03:05:01.230Z,51.51
2022-07-29T03:06:01.090Z,51.51
2022-07-29T03:07:01.072Z,51.40
2022-07-29T03:08:01.069Z,51.00
2022-07-29T03:09:01.066Z,50.90
2022-07-29T03:10:01.038Z,50.90
2022-07-29T03:11:01.049Z,51.20
2022-07-29T03:12:01.034Z,50.90
2022-07-29T03:13:01.022Z,51.40
2022-07-29T03:14:01.030Z,51.81
2022-07-29T03:15:01.014Z,51.73
2022-07-29T03:16:01.070Z,51.73
2022-07-29T03:17:00.995Z,52.04
2022-07-29T03:18:01.007Z,51.61
2022-07-29T03:19:00.986Z,52.51
2022-07-29T03:20:00.985Z,52.31
2022-07-29T03:21:00.979Z,51.31
2022-07-29T03:22:00.983Z,51.64
2022-07-29T03:23:00.977Z,51.81
2022-07-29T03:24:00.960Z,51.31
2022-07-29T03:25:00.941Z,52.42
2022-07-29T03:26:00.961Z,52.31
2022-07-29T03:27:00.950Z,51.81
2022-07-29T03:28:00.948Z,51.51
2022-07-29T03:29:00.906Z,51.20
2022-07-29T03:30:00.899Z,52.11
2022-07-29T03:31:01.012Z,51.40
2022-07-29T03:32:00.887Z,52.11
2022-07-29T03:33:00.876Z,52.31
2022-07-29T03:34:00.918Z,52.11
2022-07-29T03:35:00.856Z,52.51
2022-07-29T03:36:00.855Z,52.51
2022-07-29T03:37:00.846Z,51.71
2022-07-29T03:38:00.843Z,52.42
2022-07-29T03:39:00.823Z,51.91
2022-07-29T03:40:00.855Z,52.14
2022-07-29T03:41:00.823Z,51.81
2022-07-29T03:42:00.817Z,52.64
2022-07-29T03:43:00.815Z,52.44
2022-07-29T03:44:00.797Z,52.31
2022-07-29T03:45:00.788Z,51.84
2022-07-29T03:46:00.833Z,52.64
2022-07-29T03:47:00.769Z,52.44
2022-07-29T03:48:01.269Z,52.14
2022-07-29T03:49:00.828Z,52.44
2022-07-29T03:50:00.759Z,53.05
2022-07-29T03:51:00.738Z,53.34
2022-07-29T03:52:00.754Z,52.94
2022-07-29T03:53:00.732Z,53.45
2022-07-29T03:54:02.158Z,53.34
2022-07-29T03:55:00.712Z,53.25
2022-07-29T03:56:00.712Z,53.14
2022-07-29T03:57:00.705Z,53.32
2022-07-29T03:58:00.724Z,52.94
2022-07-29T03:59:00.690Z,52.04
2022-07-29T04:00:00.690Z,52.72
2022-07-29T04:01:00.692Z,53.12
2022-07-29T04:02:00.702Z,52.84
2022-07-29T04:03:00.693Z,52.72
2022-07-29T04:04:00.722Z,52.62
2022-07-29T04:05:00.644Z,53.42
2022-07-29T04:06:00.665Z,53.14
2022-07-29T04:07:00.635Z,53.34
2022-07-29T04:08:00.628Z,53.22
2022-07-29T04:09:00.618Z,53.52
2022-07-29T04:10:00.605Z,52.92
2022-07-29T04:11:00.601Z,53.05
2022-07-29T04:12:03.050Z,53.45
2022-07-29T04:13:00.598Z,53.05
2022-07-29T04:14:00.576Z,53.32
2022-07-29T04:15:00.584Z,53.25
2022-07-29T04:16:00.600Z,53.22
2022-07-29T04:17:00.558Z,53.42
2022-07-29T04:18:00.712Z,53.42
2022-07-29T04:19:00.544Z,53.02
2022-07-29T04:20:00.551Z,53.42
2022-07-29T04:21:00.522Z,53.32
2022-07-29T04:22:00.532Z,53.42
2022-07-29T04:23:00.510Z,53.25
2022-07-29T04:24:00.520Z,52.92
2022-07-29T04:25:04.063Z,53.32
2022-07-29T04:26:00.491Z,53.42
2022-07-29T04:27:00.498Z,51.81
2022-07-29T04:28:00.465Z,53.32
2022-07-29T04:29:00.465Z,53.65
2022-07-29T04:30:00.462Z,53.34
2022-07-29T04:31:00.487Z,53.55
2022-07-29T04:32:00.459Z,53.55
2022-07-29T04:33:00.428Z,53.22
2022-07-29T04:34:00.459Z,52.31
2022-07-29T04:35:00.416Z,53.42
2022-07-29T04:36:00.412Z,53.12
2022-07-29T04:37:00.413Z,53.12
2022-07-29T04:38:00.388Z,53.72
2022-07-29T04:39:00.389Z,53.32
2022-07-29T04:40:00.411Z,52.92
2022-07-29T04:41:00.379Z,53.12
2022-07-29T04:42:00.371Z,52.74
2022-07-29T04:43:00.366Z,53.55
2022-07-29T04:44:00.361Z,53.72
2022-07-29T04:45:01.287Z,53.83
2022-07-29T04:46:00.399Z,52.74
2022-07-29T04:47:00.339Z,52.39
2022-07-29T04:48:00.327Z,51.03
2022-07-29T04:49:00.391Z,49.98
2022-07-29T04:50:00.315Z,49.45
2022-07-29T04:51:00.309Z,49.48
2022-07-29T04:52:00.377Z,49.40
2022-07-29T04:53:00.299Z,51.51
2022-07-29T04:54:00.286Z,51.93
2022-07-29T04:55:00.320Z,51.34
2022-07-29T04:56:00.269Z,50.96
2022-07-29T04:57:00.270Z,51.79
2022-07-29T04:58:00.270Z,51.48
2022-07-29T04:59:00.242Z,52.89
2022-07-29T05:00:00.249Z,51.89
2022-07-29T05:01:00.236Z,53.30
2022-07-29T05:02:00.272Z,51.89
2022-07-29T05:03:00.355Z,52.69
2022-07-29T05:04:00.835Z,52.39
2022-07-29T05:05:00.208Z,53.20
2022-07-29T05:06:00.201Z,53.50
2022-07-29T05:07:00.186Z,53.52
2022-07-29T05:08:00.195Z,52.51
2022-07-29T05:09:00.165Z,53.22
2022-07-29T05:10:00.190Z,53.12
2022-07-29T05:11:11.524Z,53.72
2022-07-29T05:12:01.151Z,53.52
2022-07-29T05:13:00.140Z,53.63
2022-07-29T05:14:00.148Z,53.83
2022-07-29T05:15:00.144Z,53.72
2022-07-29T05:16:00.215Z,54.43
2022-07-29T05:17:00.107Z,52.82
2022-07-29T05:18:00.108Z,52.82
2022-07-29T05:19:00.103Z,53.52
2022-07-29T05:20:00.108Z,53.83
2022-07-29T05:21:00.101Z,53.63
2022-07-29T05:22:00.082Z,53.72
2022-07-29T05:23:00.079Z,53.22
2022-07-29T05:24:00.070Z,53.22
2022-07-29T05:25:00.873Z,52.92
2022-07-29T05:26:00.061Z,52.72
2022-07-29T05:27:00.081Z,53.12
2022-07-29T05:28:00.033Z,53.63
2022-07-29T05:29:00.026Z,53.63
2022-07-29T05:30:00.020Z,53.52
2022-07-29T05:31:00.038Z,53.42
2022-07-29T05:31:59.996Z,53.72
2022-07-29T05:33:00.019Z,54.43
2022-07-29T05:33:59.984Z,54.43
2022-07-29T05:34:59.987Z,54.43
2022-07-29T05:36:00.942Z,54.50
2022-07-29T05:36:59.967Z,54.43
2022-07-29T05:37:59.959Z,54.41
2022-07-29T05:38:59.982Z,53.63
2022-07-29T05:39:59.935Z,54.71
2022-07-29T05:40:59.926Z,54.43
2022-07-29T05:41:59.956Z,53.40
2022-07-29T05:42:59.915Z,53.80
2022-07-29T05:43:59.897Z,54.61
2022-07-29T05:44:59.902Z,54.50
2022-07-29T05:45:59.923Z,53.50
2022-07-29T05:46:59.878Z,53.90
2022-07-29T05:47:59.889Z,53.90
2022-07-29T05:48:59.918Z,52.80
2022-07-29T05:49:59.857Z,52.67
2022-07-29T05:50:59.847Z,53.27
2022-07-29T05:51:59.843Z,53.60
2022-07-29T05:52:59.845Z,53.27
2022-07-29T05:54:00.856Z,53.47
2022-07-29T05:54:59.819Z,53.27
2022-07-29T05:55:59.811Z,53.17
2022-07-29T05:56:59.800Z,53.34
2022-07-29T05:57:59.800Z,52.37
2022-07-29T05:58:59.803Z,52.34
2022-07-29T05:59:59.807Z,52.84
2022-07-29T06:00:59.864Z,52.54
2022-07-29T06:01:59.810Z,53.25
2022-07-29T06:02:59.758Z,52.24
2022-07-29T06:03:59.795Z,53.25
2022-07-29T06:04:59.775Z,53.32
2022-07-29T06:05:59.760Z,53.22
2022-07-29T06:06:59.728Z,53.22
2022-07-29T06:07:59.720Z,52.29
2022-07-29T06:08:59.710Z,52.39
2022-07-29T06:10:00.716Z,51.59
2022-07-29T06:10:59.699Z,51.18
2022-07-29T06:11:59.709Z,52.09
2022-07-29T06:12:59.689Z,51.09
2022-07-29T06:13:59.676Z,51.89
2022-07-29T06:14:59.669Z,51.81
2022-07-29T06:15:59.745Z,51.49
2022-07-29T06:16:59.658Z,52.29
2022-07-29T06:18:01.310Z,50.68
2022-07-29T06:18:59.656Z,51.18
2022-07-29T06:19:59.650Z,51.59
2022-07-29T06:20:59.627Z,51.59
2022-07-29T06:21:59.612Z,52.09
2022-07-29T06:22:59.620Z,51.16
2022-07-29T06:23:59.604Z,51.68
2022-07-29T06:24:59.597Z,51.26
2022-07-29T06:25:59.606Z,50.05
2022-07-29T06:26:59.593Z,51.16
2022-07-29T06:27:59.598Z,51.66
2022-07-29T06:28:59.561Z,50.76
2022-07-29T06:29:59.558Z,49.95
2022-07-29T06:30:59.636Z,49.95
2022-07-29T06:31:59.548Z,51.14
2022-07-29T06:32:59.532Z,51.24
2022-07-29T06:33:59.535Z,51.24
2022-07-29T06:35:24.502Z,50.41
2022-07-29T06:36:00.520Z,50.84
2022-07-29T06:36:59.505Z,51.21
2022-07-29T06:37:59.987Z,50.51
2022-07-29T06:38:59.499Z,49.80
2022-07-29T06:39:59.732Z,49.30
2022-07-29T06:40:59.498Z,48.50
2022-07-29T06:41:59.499Z,49.60
2022-07-29T06:42:59.474Z,49.51
2022-07-29T06:43:59.459Z,49.40
2022-07-29T06:44:59.441Z,50.61
2022-07-29T06:45:59.475Z,50.81
2022-07-29T06:46:59.443Z,51.31
2022-07-29T06:47:59.445Z,51.31
2022-07-29T06:48:59.450Z,52.22
2022-07-29T06:49:59.419Z,52.92
2022-07-29T06:50:59.398Z,52.92
2022-07-29T06:51:59.405Z,52.51
2022-07-29T06:52:59.409Z,53.02
2022-07-29T06:54:02.862Z,53.32
2022-07-29T06:54:59.379Z,52.32
2022-07-29T06:55:59.359Z,52.22
2022-07-29T06:56:59.353Z,51.72
2022-07-29T06:57:59.349Z,51.24
2022-07-29T06:58:59.357Z,52.84
2022-07-29T06:59:59.338Z,53.45
2022-07-29T07:00:59.399Z,55.08
2022-07-29T07:01:59.367Z,53.57
2022-07-29T07:02:59.304Z,52.67
2022-07-29T07:03:59.331Z,54.68
2022-07-29T07:04:59.294Z,55.31
2022-07-29T07:05:59.288Z,56.41
2022-07-29T07:06:59.280Z,55.91
2022-07-29T07:07:59.271Z,56.74
2022-07-29T07:08:59.258Z,56.04
2022-07-29T07:09:59.283Z,56.57
2022-07-29T07:10:59.257Z,58.38
2022-07-29T07:11:59.246Z,57.78
2022-07-29T07:12:59.241Z,57.98
2022-07-29T07:14:03.019Z,58.58
2022-07-29T07:14:59.225Z,59.19
2022-07-29T07:15:59.233Z,61.40
2022-07-29T07:16:59.262Z,61.60
2022-07-29T07:17:59.201Z,60.29
2022-07-29T07:18:59.212Z,61.93
2022-07-29T07:19:59.207Z,63.27
2022-07-29T07:20:59.203Z,63.67
2022-07-29T07:21:59.183Z,66.02
2022-07-29T07:22:59.169Z,66.83
2022-07-29T07:23:59.160Z,69.15
2022-07-29T07:24:59.167Z,70.06
2022-07-29T07:25:59.138Z,69.85
2022-07-29T07:26:59.143Z,71.17
2022-07-29T07:27:59.148Z,71.26
2022-07-29T07:28:59.120Z,71.26
2022-07-29T07:29:59.115Z,70.15
2022-07-29T07:30:59.142Z,69.92
2022-07-29T07:32:01.182Z,69.82
2022-07-29T07:32:59.094Z,70.22
2022-07-29T07:33:59.117Z,69.38
2022-07-29T07:34:59.079Z,70.09
2022-07-29T07:35:59.070Z,69.49
2022-07-29T07:36:59.061Z,69.49
2022-07-29T07:37:59.069Z,69.56
2022-07-29T07:38:59.048Z,69.25
2022-07-29T07:39:59.037Z,69.76
2022-07-29T07:40:59.030Z,70.53
2022-07-29T07:41:59.051Z,70.06
2022-07-29T07:42:59.034Z,69.52
2022-07-29T07:43:59.014Z,69.62
2022-07-29T07:45:13.009Z,69.42
2022-07-29T07:46:00.070Z,69.59
2022-07-29T07:46:58.988Z,69.29
2022-07-29T07:47:58.978Z,68.68
2022-07-29T07:48:59.039Z,67.85
2022-07-29T07:49:58.965Z,67.35
2022-07-29T07:50:58.954Z,67.14
2022-07-29T07:51:58.944Z,67.58
2022-07-29T07:52:59.102Z,69.42
2022-07-29T07:53:58.935Z,70.66
2022-07-29T07:54:58.934Z,67.44
2022-07-29T07:56:14.171Z,69.42
2022-07-29T07:56:59.929Z,71.03
2022-07-29T07:57:58.920Z,70.53
2022-07-29T07:58:58.886Z,70.06
2022-07-29T07:59:58.884Z,70.66
2022-07-29T08:00:58.972Z,70.46
2022-07-29T08:01:59.073Z,71.10
2022-07-29T08:02:58.881Z,71.80
2022-07-29T08:03:58.867Z,72.20
2022-07-29T08:04:58.867Z,70.90
2022-07-29T08:05:58.850Z,72.14
2022-07-29T08:06:58.838Z,71.44
2022-07-29T08:07:58.821Z,71.44
2022-07-29T08:09:19.525Z,72.38
2022-07-29T08:09:59.828Z,72.04
2022-07-29T08:10:58.800Z,72.54
2022-07-29T08:11:58.832Z,72.34
2022-07-29T08:12:58.802Z,71.94
2022-07-29T08:13:58.799Z,71.23
2022-07-29T08:14:58.768Z,71.60
2022-07-29T08:15:59.170Z,68.78
2022-07-29T08:16:58.818Z,69.89
2022-07-29T08:17:58.780Z,68.75
2022-07-29T08:18:58.734Z,69.96
2022-07-29T08:19:58.738Z,70.86
2022-07-29T08:20:58.746Z,70.06
2022-07-29T08:21:58.717Z,70.32
2022-07-29T08:22:58.713Z,69.02
2022-07-29T08:24:02.905Z,67.54
2022-07-29T08:24:58.700Z,69.62
2022-07-29T08:25:58.692Z,70.32
2022-07-29T08:26:58.679Z,69.62
2022-07-29T08:27:58.688Z,66.10
2022-07-29T08:28:58.662Z,67.41
2022-07-29T08:29:58.694Z,66.37
2022-07-29T08:30:58.653Z,64.96
2022-07-29T08:31:58.693Z,67.38
2022-07-29T08:32:58.967Z,68.05
2022-07-29T08:33:58.634Z,67.44
2022-07-29T08:34:58.620Z,68.85
2022-07-29T08:35:58.622Z,67.82
2022-07-29T08:36:58.620Z,65.47
2022-07-29T08:37:58.613Z,63.76
2022-07-29T08:38:58.622Z,62.46
2022-07-29T08:39:58.593Z,61.63
2022-07-29T08:40:58.588Z,62.63
2022-07-29T08:41:58.660Z,61.22
2022-07-29T08:42:58.566Z,63.03
2022-07-29T08:43:58.583Z,61.60
2022-07-29T08:44:58.569Z,60.82
2022-07-29T08:45:58.570Z,62.46
2022-07-29T08:46:58.540Z,64.14
2022-07-29T08:47:58.533Z,60.74
2022-07-29T08:48:58.578Z,58.68
2022-07-29T08:49:58.516Z,61.45
2022-07-29T08:50:58.529Z,52.92
2022-07-29T08:51:58.895Z,50.38
2022-07-29T08:53:00.057Z,48.37
2022-07-29T08:53:58.491Z,48.17
2022-07-29T08:54:58.493Z,47.22
2022-07-29T08:55:58.481Z,48.66
2022-07-29T08:56:58.462Z,48.66
2022-07-29T08:57:58.478Z,49.36
2022-07-29T08:58:58.447Z,49.08
2022-07-29T08:59:58.468Z,48.02
2022-07-29T09:00:58.480Z,47.94
2022-07-29T09:01:58.823Z,47.14
2022-07-29T09:02:58.430Z,47.34
2022-07-29T09:03:58.449Z,46.65
2022-07-29T09:04:58.430Z,45.78
2022-07-29T09:05:58.418Z,44.31
2022-07-29T09:06:58.411Z,44.72
2022-07-29T09:07:58.407Z,45.84
2022-07-29T09:08:58.391Z,46.84
2022-07-29T09:09:58.390Z,49.65
2022-07-29T09:10:58.372Z,48.88
2022-07-29T09:11:58.366Z,47.80
2022-07-29T09:12:58.370Z,48.10
2022-07-29T09:13:58.358Z,48.65
2022-07-29T09:14:58.358Z,48.85
2022-07-29T09:15:58.415Z,50.15
2022-07-29T09:16:58.420Z,49.85
2022-07-29T09:17:58.347Z,50.84
2022-07-29T09:18:58.318Z,50.47
2022-07-29T09:19:58.354Z,51.07
2022-07-29T09:20:58.320Z,50.87
2022-07-29T09:21:58.299Z,51.17
2022-07-29T09:22:58.306Z,51.47
2022-07-29T09:23:58.288Z,54.37
2022-07-29T09:24:58.304Z,55.79
2022-07-29T09:25:58.276Z,53.19
2022-07-29T09:26:58.263Z,52.59
2022-07-29T09:27:58.257Z,52.99
2022-07-29T09:28:58.246Z,54.12
2022-07-29T09:29:58.262Z,54.10
2022-07-29T09:30:58.241Z,53.69
2022-07-29T09:31:58.300Z,51.70
2022-07-29T09:32:58.224Z,47.20
2022-07-29T09:33:58.220Z,43.26
2022-07-29T09:34:58.512Z,41.87
2022-07-29T09:35:58.198Z,38.42
2022-07-29T09:36:58.670Z,35.96
2022-07-29T09:37:58.211Z,38.20
2022-07-29T09:38:58.175Z,38.84
2022-07-29T09:39:58.163Z,37.24
2022-07-29T09:40:58.185Z,38.97
2022-07-29T09:41:59.160Z,36.71
2022-07-29T09:42:58.156Z,38.46
2022-07-29T09:43:58.150Z,35.78
2022-07-29T09:44:58.152Z,33.33
2022-07-29T09:45:58.148Z,34.74
2022-07-29T09:46:58.686Z,38.12
2022-07-29T09:47:58.117Z,36.86
2022-07-29T09:48:58.135Z,37.96
2022-07-29T09:49:58.095Z,38.08
2022-07-29T09:50:58.085Z,36.61
2022-07-29T09:51:58.083Z,37.45
2022-07-29T09:52:58.094Z,38.33
2022-07-29T09:53:58.069Z,38.27
2022-07-29T09:54:58.061Z,39.73
2022-07-29T09:55:58.047Z,39.46
2022-07-29T09:56:58.289Z,39.95
2022-07-29T09:57:58.067Z,39.10
2022-07-29T09:58:58.042Z,40.98
2022-07-29T09:59:58.025Z,39.20
2022-07-29T10:00:58.067Z,40.01
2022-07-29T10:01:58.382Z,39.77
2022-07-29T10:02:58.093Z,41.38
2022-07-29T10:03:57.995Z,41.85
2022-07-29T10:04:58.011Z,41.95
2022-07-29T10:05:57.992Z,41.66
2022-07-29T10:07:03.879Z,40.84
2022-07-29T10:07:58.994Z,40.86
2022-07-29T10:08:57.958Z,40.17
2022-07-29T10:09:57.971Z,41.73
2022-07-29T10:10:57.948Z,40.82
2022-07-29T10:11:58.152Z,41.30
2022-07-29T10:12:59.737Z,41.06
2022-07-29T10:13:57.954Z,41.36
2022-07-29T10:14:57.918Z,41.95
2022-07-29T10:15:57.948Z,40.17
2022-07-29T10:16:57.905Z,40.58
2022-07-29T10:17:57.900Z,40.98
2022-07-29T10:18:57.917Z,39.73
2022-07-29T10:19:57.899Z,40.15
2022-07-29T10:20:57.886Z,39.47
2022-07-29T10:21:58.213Z,43.06
2022-07-29T10:22:57.860Z,42.29
2022-07-29T10:23:59.569Z,42.39
2022-07-29T10:24:57.889Z,43.08
2022-07-29T10:25:57.851Z,43.68
2022-07-29T10:26:57.842Z,42.91
2022-07-29T10:27:57.833Z,43.01
2022-07-29T10:28:57.855Z,42.71
2022-07-29T10:29:57.826Z,42.93
2022-07-29T10:30:57.861Z,44.81
2022-07-29T10:31:58.322Z,44.32
2022-07-29T10:32:57.796Z,44.70
2022-07-29T10:33:57.809Z,45.76
2022-07-29T10:34:57.779Z,45.07
2022-07-29T10:35:57.784Z,42.69
2022-07-29T10:36:57.822Z,43.08
2022-07-29T10:37:57.830Z,43.18
2022-07-29T10:38:57.762Z,41.99
2022-07-29T10:39:57.743Z,41.79
2022-07-29T10:40:57.749Z,41.28
2022-07-29T10:41:58.093Z,42.05
2022-07-29T10:42:57.731Z,41.16
2022-07-29T10:43:57.759Z,40.64
2022-07-29T10:44:57.723Z,41.14
2022-07-29T10:45:57.771Z,41.44
2022-07-29T10:46:57.733Z,41.36
2022-07-29T10:47:57.698Z,41.33
2022-07-29T10:48:57.785Z,40.96
2022-07-29T10:49:57.685Z,40.17
2022-07-29T10:50:57.674Z,39.45
2022-07-29T10:51:58.236Z,40.55
2022-07-29T10:52:57.673Z,41.14
2022-07-29T10:53:57.659Z,41.33
2022-07-29T10:54:57.677Z,40.42
2022-07-29T10:55:57.648Z,41.22
2022-07-29T10:56:57.656Z,41.91
2022-07-29T10:57:57.632Z,39.42
2022-07-29T10:58:57.632Z,39.51
2022-07-29T10:59:57.649Z,40.48
2022-07-29T11:00:57.745Z,39.87
2022-07-29T11:02:10.848Z,41.85
2022-07-29T11:02:57.698Z,40.94
2022-07-29T11:03:57.601Z,39.36
2022-07-29T11:04:57.609Z,39.54
2022-07-29T11:05:59.584Z,39.54
2022-07-29T11:06:57.579Z,38.06
2022-07-29T11:07:57.573Z,39.83
2022-07-29T11:08:57.562Z,38.75
2022-07-29T11:09:57.543Z,38.33
2022-07-29T11:10:57.561Z,38.04
2022-07-29T11:11:57.761Z,38.21
2022-07-29T11:12:57.530Z,37.21
2022-07-29T11:13:57.517Z,36.91
2022-07-29T11:14:57.509Z,37.90
2022-07-29T11:15:57.535Z,36.14
2022-07-29T11:16:57.522Z,36.71
2022-07-29T11:17:59.299Z,38.47
2022-07-29T11:18:58.503Z,36.80
2022-07-29T11:19:57.494Z,35.88
2022-07-29T11:20:57.465Z,36.86
2022-07-29T11:21:58.484Z,37.04
2022-07-29T11:22:57.487Z,35.97
2022-07-29T11:23:57.454Z,35.08
2022-07-29T11:24:57.446Z,35.27
2022-07-29T11:25:57.437Z,34.89
2022-07-29T11:27:00.499Z,34.69
2022-07-29T11:27:57.433Z,35.38
2022-07-29T11:28:57.455Z,33.59
2022-07-29T11:29:57.410Z,35.66
2022-07-29T11:30:57.782Z,34.49
2022-07-29T11:31:57.604Z,34.87
2022-07-29T11:32:57.424Z,34.77
2022-07-29T11:33:58.015Z,33.98
2022-07-29T11:34:57.375Z,34.87
2022-07-29T11:36:00.807Z,35.44
2022-07-29T11:36:57.617Z,35.35
2022-07-29T11:37:57.773Z,34.36
2022-07-29T11:38:57.348Z,33.67
2022-07-29T11:40:01.491Z,33.67
2022-07-29T11:40:57.332Z,35.44
2022-07-29T11:42:01.768Z,34.28
2022-07-29T11:42:58.405Z,35.18
2022-07-29T11:43:57.313Z,35.60
2022-07-29T11:44:57.310Z,34.82
2022-07-29T11:45:57.327Z,36.61
2022-07-29T11:46:57.289Z,37.11
2022-07-29T11:48:00.844Z,37.80
2022-07-29T11:48:57.343Z,38.00
2022-07-29T11:49:57.273Z,36.91
2022-07-29T11:50:58.230Z,36.12
2022-07-29T11:51:57.358Z,37.09
2022-07-29T11:52:57.243Z,36.00
2022-07-29T11:54:01.036Z,36.80
2022-07-29T11:55:00.736Z,36.09
2022-07-29T11:55:58.571Z,37.07
2022-07-29T11:56:57.218Z,38.47
2022-07-29T11:58:03.711Z,38.95
2022-07-29T11:58:58.206Z,36.19
2022-07-29T12:00:00.399Z,36.78
2022-07-29T12:00:58.193Z,35.20
2022-07-29T12:02:58.239Z,36.46
2022-07-29T12:03:57.253Z,36.07
2022-07-29T12:04:57.170Z,35.28
2022-07-29T12:05:57.452Z,35.58
2022-07-29T12:07:00.537Z,34.28
2022-07-29T12:07:57.164Z,35.27
2022-07-29T12:08:57.134Z,35.96
2022-07-29T12:09:57.163Z,34.75
2022-07-29T12:10:57.126Z,34.86
2022-07-29T12:12:00.739Z,34.27
2022-07-29T12:12:58.137Z,34.06
2022-07-29T12:13:57.138Z,33.48
2022-07-29T12:14:57.100Z,35.35
2022-07-29T12:15:57.129Z,35.15
2022-07-29T12:16:57.112Z,35.05
2022-07-29T12:17:58.990Z,35.66
2022-07-29T12:18:58.085Z,36.35
2022-07-29T12:19:57.090Z,37.51
2022-07-29T12:20:57.055Z,35.25
2022-07-29T12:21:59.708Z,35.66
2022-07-29T12:22:57.040Z,34.67
2022-07-29T12:23:57.751Z,35.46
2022-07-29T12:25:23.222Z,34.79
2022-07-29T12:25:58.052Z,35.20
2022-07-29T12:26:57.037Z,35.69
2022-07-29T12:27:57.012Z,35.71
2022-07-29T12:28:57.006Z,36.11
2022-07-29T12:29:57.020Z,35.24
2022-07-29T12:30:56.995Z,36.50
2022-07-29T12:31:57.876Z,35.31
2022-07-29T12:32:56.978Z,36.19
2022-07-29T12:33:56.994Z,35.20
2022-07-29T12:34:56.960Z,35.58
2022-07-29T12:36:14.175Z,35.10
2022-07-29T12:36:57.958Z,35.30
2022-07-29T12:37:56.951Z,36.00
2022-07-29T12:38:56.934Z,36.22
2022-07-29T12:39:56.942Z,37.01
2022-07-29T12:40:56.919Z,37.74
2022-07-29T12:42:03.897Z,37.24
2022-07-29T12:42:56.905Z,37.05
2022-07-29T12:43:56.895Z,38.23
2022-07-29T12:44:56.902Z,38.23
2022-07-29T12:45:56.888Z,37.24
2022-07-29T12:46:56.949Z,38.23
2022-07-29T12:47:56.904Z,38.33
2022-07-29T12:48:56.907Z,37.94
2022-07-29T12:49:56.859Z,39.03
2022-07-29T12:50:56.864Z,38.53
2022-07-29T12:51:57.082Z,39.62
2022-07-29T12:52:56.838Z,39.91